x

Western Gulf Of Alaska - 175nm Se Of Kodiak, Ak (46001) Wave Buoy

8:50am - Tue 27th Sep 2016 All times are AKDT. -8 hours from GMT.

  • Sig Wave height 4.3ft
  • Peak Period 7s
  • Average Period 6s
  • Wind
    4mph, 7mph gusts
  • Sea Temp 56°f
  • Air Temp 52°f
  • Sea Pressure 1014.7mb
  • Western Gulf Of Alaska  - 175nm Se Of Kodiak, Ak
  • Western Gulf Of Alaska  - 175nm Se Of Kodiak, Ak

More Historic Weather Station data

Upgrade to MSW Pro to gain access to the past 30 days of data for over 8000 Wavebouys and Weather Stations around the globe.

Join Pro

Comparision Forecast

View Surf forecast
   
Tue 09/27 8:50am 4.5ft 7s 6s 4 7 mph 1014.7mb 56f 52f
7:50am 4.5ft 6s 6s 2
mph
1014.3mb 56f 51f
6:50am 4.5ft 16s 6s 4
mph
1014.2mb 56f 50f
5:50am 4.5ft 6s 5s 2
mph
1013.8mb 56f 53f
4:50am 4.5ft 16s 5s 4 7 mph 1013.7mb 56f 52f
3:50am 4.5ft 10s 6s 7 9 mph 1013.5mb 56f 52f
2:50am 4ft 16s 6s 7 9 mph 1013.4mb 56f 51f
1:50am 4ft 16s 6s 9 11 mph 1013.2mb 56f 52f
12:50am 4.5ft 10s 5s 11 13 mph 1013mb 56f 52f
Mon 09/26 11:50pm 4ft 16s 5s 13 16 mph 1013mb 56f 52f
10:50pm 4ft 7s 6s 11 13 mph 1013mb 56f 53f
9:50pm 4ft 7s 5s 13 16 mph 1013.1mb 56f 52f
8:50pm 5ft 9s 6s 9 11 mph 1013.1mb 56f 53f
7:50pm 5ft 16s 6s 11 13 mph 1013.2mb 57f 53f
6:50pm 5.5ft 6s 6s 7 11 mph 1013.2mb 57f 52f
5:50pm 5ft 7s 6s 11 13 mph 1013.3mb 57f 52f
4:50pm 5.5ft 10s 6s 9 11 mph 1013.4mb 57f 52f
3:50pm 6ft 6s 6s 11 16 mph 1013.4mb 57f 52f
2:50pm 5.5ft 10s 6s 9 11 mph 1013.4mb 56f 52f
1:50pm 5.5ft 16s 6s 11 13 mph 1013.4mb 56f 52f
12:50pm 5.5ft 8s 6s 4 7 mph 1013.5mb 56f 50f
11:50am 5ft 8s  -  11 18 mph 1013.2mb 56f 50f
10:50am 4.5ft 9s 5s 16 20 mph 1013mb 56f 51f
9:50am 5ft 8s 5s 16 20 mph 1012.6mb 56f 51f
8:50am 5ft 6s 5s 11 16 mph 1012.5mb 56f 51f
7:50am 5ft 9s 6s 9 13 mph 1012.3mb 56f 51f
6:50am 5ft 16s 6s 7 11 mph 1012.6mb 57f 49f
5:50am 4.5ft 8s 6s 16 20 mph 1012.2mb 57f 50f
4:50am 4.5ft 8s 6s 7 9 mph 1012.1mb 57f 50f
3:50am 4.5ft 9s 6s 7
mph
1012.1mb 57f 48f
2:50am 4.5ft 9s 6s 11 13 mph 1011.7mb 57f 51f
1:50am 4ft 9s 5s 11 13 mph 1011.5mb 56f 51f
12:50am 4.5ft 8s 6s 11 16 mph 1011.4mb 56f 51f
Sun 09/25 11:50pm 4ft 8s 5s 9 13 mph 1011.3mb 56f 51f
10:50pm 4ft 8s 4s 13 16 mph 1011.3mb 56f 52f
9:50pm 4.5ft 8s 5s 16 18 mph 1011.3mb 56f 52f
8:50pm 4.5ft 8s 5s 13 16 mph 1011.2mb 56f 52f
7:50pm 4.5ft 8s 5s 11 13 mph 1011.3mb 57f 52f
6:50pm 4.5ft 7s 5s 11 13 mph 1011.5mb 57f 52f
5:50pm 4.5ft 8s 5s 13 16 mph 1011.6mb 57f 53f
4:50pm 4.5ft 8s 5s 13 16 mph 1011.8mb 57f 53f
3:50pm 4.5ft 8s 6s 13 16 mph 1011.9mb 57f 53f
2:50pm 4.5ft 8s 6s 4 7 mph 1012.2mb 57f 53f
1:50pm 4.5ft 8s 6s 11 13 mph 1012.3mb 57f 53f
12:50pm 4.5ft 9s 6s 9 11 mph 1012.3mb 56f 53f
11:50am 4.5ft 16s 7s 9 13 mph 1012.2mb 56f 53f
10:50am 4.5ft 9s 6s 9 11 mph 1012.1mb 56f 53f
9:50am 4.5ft 8s 6s 9 11 mph 1011.8mb 56f 52f
8:50am 4.5ft 8s 5s 9
mph
1011.7mb 56f 51f
7:50am 5ft 8s 5s 18 22 mph 1011.5mb 56f 51f
6:50am 5ft 8s 5s 11 13 mph 1011.6mb 56f 53f
5:50am 5ft 8s 5s 16 18 mph 1011.2mb 56f 53f
4:50am 5.5ft 7s 6s 7 9 mph 1011.5mb 56f 53f
3:50am 5ft 8s 6s 4 7 mph 1011.6mb 57f 52f
2:50am 5ft 9s 6s 13 18 mph 1011.5mb 56f 53f
1:50am 5ft 9s 6s 13 18 mph 1011.5mb 57f 54f
12:50am 5ft 9s 6s 13 16 mph 1011.3mb 57f 54f
Sat 09/24 11:50pm 5ft 9s 6s 16 18 mph 1011.1mb 57f 54f
10:50pm 4.5ft 9s 6s 13 18 mph 1011mb 57f 54f
9:50pm 4.5ft 8s 6s 13 16 mph 1010.8mb 56f 54f
8:50pm 4.5ft 10s 6s 13 16 mph 1010.3mb 56f 54f
7:50pm 5ft 8s 6s 11 13 mph 1010.1mb 56f 54f
6:50pm 6ft 9s 6s 13 16 mph 1009.9mb 56f 54f
5:50pm 6ft 9s 6s 13 16 mph 1009.8mb 56f 54f
4:50pm 6ft 8s 5s 13 18 mph 1009.7mb 56f 54f
3:50pm 6ft 9s 6s 13 16 mph 1009.8mb 56f 54f
2:50pm 6ft 8s 6s 13 16 mph 1009.5mb 56f 54f
1:50pm 6ft 8s 6s 13 16 mph 1009.3mb 56f 54f
12:50pm 5.5ft 9s 6s 13 16 mph 1008.9mb 56f 54f
11:50am 6ft 9s 7s 13 16 mph 1008.5mb 56f 54f
10:50am 5.5ft 9s 7s 13 18 mph 1007.8mb 56f 54f
9:50am 5.5ft 10s 7s 11 16 mph 1007.2mb 56f 54f
8:50am 4.5ft 9s 6s 11 16 mph 1006.8mb 56f 53f
7:50am 5ft 9s 6s 11 13 mph 1006.3mb 56f 53f
6:50am 6ft 10s 6s 11 13 mph 1005.8mb 56f 53f
5:50am 6ft 8s 6s 11 13 mph 1005.5mb 56f 53f
4:50am 8ft 9s 7s 9 16 mph 1005.2mb 56f 53f
3:50am 8ft 9s 7s 9 13 mph 1005mb 56f 53f
2:50am 8ft 8s 7s 9 13 mph 1004.9mb 56f 53f
1:50am 8ft 10s 7s 13 16 mph 1004.8mb 56f 53f
12:50am 7.5ft 9s 7s 11 13 mph 1004.6mb 56f 53f
Fri 09/23 11:50pm 8ft 10s 7s 11 13 mph 1004.2mb 56f 53f
10:50pm 7ft 9s 7s 11
mph
1003.9mb 56f 52f
9:50pm 7.5ft 11s 7s 13 16 mph 1003.3mb 56f 52f
8:50pm 7ft 11s 7s 13 18 mph 1002.8mb 56f 54f
7:50pm 8ft 11s 7s 11 13 mph 1002.7mb 56f 53f
6:50pm 7.5ft 9s 7s 7 9 mph 1002.5mb 56f 53f
5:50pm 8ft 11s 7s 11 13 mph 1002.3mb 56f 54f